Time;durP1;ratioP1;P1;durP2;ratioP2;P2;SDS_P1;SDS_P2;PMS_P1;PMS_P2;Temp;Humidity;BMP_temperature;BMP_pressure;BME280_temperature;BME280_humidity;BME280_pressure;Samples;Min_cycle;Max_cycle;Signal;HPM_P1;HPM_P2
2022/01/03 05:01:49;;;;;;;4.40;1.60;;;11.50;99.90;;;;;;5375919;23;20504;-76
2022/01/03 05:04:16;;;;;;;3.63;1.80;;;11.50;99.90;;;;;;4972909;28;20925;-76
2022/01/03 05:06:43;;;;;;;8.70;1.60;;;11.50;99.90;;;;;;4973245;28;20538;-76
2022/01/03 05:09:10;;;;;;;4.13;1.67;;;11.40;99.90;;;;;;4972798;28;20539;-76
2022/01/03 05:11:37;;;;;;;8.10;1.70;;;11.40;99.90;;;;;;4972796;28;20558;-77
2022/01/03 05:14:03;;;;;;;6.70;1.43;;;11.30;99.90;;;;;;4972724;28;20550;-76
2022/01/03 05:16:30;;;;;;;2.93;1.47;;;11.20;99.90;;;;;;4973120;28;21013;-76
2022/01/03 05:18:59;;;;;;;6.50;1.60;;;10.90;99.90;;;;;;4972720;28;20452;-76
2022/01/03 05:21:26;;;;;;;3.80;1.30;;;10.60;99.90;;;;;;4973058;28;20582;-76
2022/01/03 05:23:52;;;;;;;3.60;1.40;;;10.50;99.90;;;;;;4972940;28;20506;-76
2022/01/03 05:26:19;;;;;;;2.40;1.20;;;10.50;99.90;;;;;;4972868;28;20546;-76
2022/01/03 05:28:47;;;;;;;1.83;1.20;;;10.40;99.90;;;;;;4972304;28;20542;-76
2022/01/03 05:31:14;;;;;;;6.87;1.27;;;10.30;99.90;;;;;;4972881;28;20558;-76
2022/01/03 05:33:41;;;;;;;4.63;1.30;;;10.20;99.90;;;;;;4972952;28;20455;-76
2022/01/03 05:36:09;;;;;;;1.20;1.10;;;10.20;99.90;;;;;;4972891;28;20538;-76
2022/01/03 05:38:36;;;;;;;2.03;1.30;;;10.00;99.90;;;;;;4972669;28;20547;-76
2022/01/03 05:41:03;;;;;;;3.47;1.27;;;10.00;99.90;;;;;;4972328;28;20512;-76
2022/01/03 05:43:30;;;;;;;5.30;1.80;;;9.90;99.90;;;;;;4973590;28;20487;-76
2022/01/03 05:45:57;;;;;;;5.30;1.70;;;9.90;99.90;;;;;;4976379;28;20496;-76
2022/01/03 05:48:24;;;;;;;6.93;1.80;;;9.80;99.90;;;;;;4976156;28;20875;-76
2022/01/03 05:50:51;;;;;;;4.97;1.93;;;9.80;99.90;;;;;;4975956;28;20555;-76
2022/01/03 05:53:19;;;;;;;2.53;1.33;;;9.80;99.90;;;;;;4976087;28;20875;-76
2022/01/03 05:55:46;;;;;;;7.07;1.83;;;9.70;99.90;;;;;;4975932;28;20539;-76
2022/01/03 05:58:13;;;;;;;11.60;2.37;;;9.80;99.90;;;;;;4975938;28;21023;-76
2022/01/03 06:00:40;;;;;;;2.47;1.40;;;9.80;99.90;;;;;;4974961;28;20582;-76
2022/01/03 06:03:08;;;;;;;4.57;1.63;;;9.80;99.90;;;;;;4975966;28;20522;-74
2022/01/03 06:05:53;;;;;;;4.93;1.10;;;9.80;99.90;;;;;;4975860;28;20539;-74
2022/01/03 06:08:21;;;;;;;5.33;1.50;;;9.80;99.90;;;;;;4975561;28;20457;-74
2022/01/03 06:10:48;;;;;;;7.97;1.73;;;9.80;99.90;;;;;;4975673;28;20499;-74
2022/01/03 06:13:16;;;;;;;4.30;1.63;;;9.80;99.90;;;;;;4975936;28;20484;-74
2022/01/03 06:15:44;;;;;;;4.83;1.70;;;9.90;99.90;;;;;;4975744;28;20447;-74
2022/01/03 06:18:14;;;;;;;5.07;1.83;;;9.80;99.90;;;;;;4975585;28;20452;-74
2022/01/03 06:20:43;;;;;;;6.87;2.00;;;9.80;99.90;;;;;;4975160;28;20867;-74
2022/01/03 06:23:13;;;;;;;3.43;1.50;;;9.80;99.90;;;;;;4975535;28;20456;-74
2022/01/03 06:25:41;;;;;;;14.00;2.43;;;9.80;99.90;;;;;;4975642;28;20541;-74
2022/01/03 06:28:09;;;;;;;10.60;1.70;;;9.80;99.90;;;;;;4975537;28;20456;-74
2022/01/03 06:30:37;;;;;;;10.63;2.20;;;9.80;99.90;;;;;;4975136;28;20463;-74
2022/01/03 06:33:04;;;;;;;7.00;1.70;;;9.80;99.90;;;;;;4975258;28;20535;-74
2022/01/03 06:35:32;;;;;;;7.50;1.87;;;9.80;99.90;;;;;;4975097;28;20531;-74
2022/01/03 06:38:00;;;;;;;5.80;1.80;;;9.90;99.90;;;;;;4975388;28;20510;-74
2022/01/03 06:40:27;;;;;;;13.37;2.60;;;9.90;99.90;;;;;;4974965;28;20547;-74
2022/01/03 06:42:55;;;;;;;9.17;2.10;;;9.90;99.90;;;;;;4975246;28;20881;-74
2022/01/03 06:45:22;;;;;;;5.57;1.90;;;9.90;99.90;;;;;;4975170;28;20451;-74
2022/01/03 06:47:50;;;;;;;11.10;1.87;;;9.90;99.90;;;;;;4975045;28;20535;-74
2022/01/03 06:50:18;;;;;;;8.00;2.00;;;9.90;99.90;;;;;;4974503;28;20456;-74
2022/01/03 06:52:44;;;;;;;9.43;2.23;;;10.00;99.90;;;;;;4975072;28;20889;-74
2022/01/03 06:55:11;;;;;;;3.53;1.57;;;10.00;99.90;;;;;;4974522;28;20543;-74
2022/01/03 06:57:38;;;;;;;4.97;1.83;;;10.00;99.90;;;;;;4974904;28;20538;-74
2022/01/03 07:00:08;;;;;;;7.00;1.70;;;10.00;99.90;;;;;;4975148;28;20532;-74
2022/01/03 07:02:35;;;;;;;7.90;2.20;;;9.90;99.90;;;;;;4973948;28;20583;-74
2022/01/03 07:05:02;;;;;;;9.40;1.93;;;9.90;99.90;;;;;;4974946;28;20466;-74
2022/01/03 07:07:28;;;;;;;4.70;2.03;;;9.90;99.90;;;;;;4974878;28;20448;-74
2022/01/03 07:09:55;;;;;;;8.00;2.03;;;9.90;99.90;;;;;;4974521;28;20534;-74
2022/01/03 07:12:22;;;;;;;5.97;1.53;;;9.90;99.90;;;;;;4974576;28;20551;-74
2022/01/03 07:20:19;;;;;;;8.13;1.80;;;9.90;99.90;;;;;;4974237;28;20812;-74
2022/01/03 07:22:46;;;;;;;6.80;2.27;;;9.90;99.90;;;;;;4974466;28;20586;-74
2022/01/03 07:25:13;;;;;;;5.37;1.70;;;9.90;99.90;;;;;;4974291;28;20559;-74
2022/01/03 07:27:41;;;;;;;8.53;1.77;;;9.90;99.90;;;;;;4974095;28;20456;-74
2022/01/03 07:30:09;;;;;;;13.93;2.50;;;10.00;99.90;;;;;;4974001;28;20821;-74
2022/01/03 07:32:37;;;;;;;3.63;1.50;;;9.90;99.90;;;;;;4974232;28;20555;-74
2022/01/03 07:35:05;;;;;;;8.70;2.10;;;9.90;99.90;;;;;;4974290;28;20820;-74
2022/01/03 07:37:33;;;;;;;8.30;1.90;;;9.90;99.90;;;;;;4974214;28;20454;-74
2022/01/03 07:40:00;;;;;;;6.70;1.80;;;9.90;99.90;;;;;;4973607;28;20451;-74
2022/01/03 07:42:26;;;;;;;4.87;1.93;;;9.90;99.90;;;;;;4974046;28;20499;-74
2022/01/03 07:44:53;;;;;;;7.13;2.33;;;9.90;99.90;;;;;;4973959;28;20551;-74
2022/01/03 07:47:20;;;;;;;13.10;2.10;;;9.90;99.90;;;;;;4973904;28;20547;-74
2022/01/03 07:49:48;;;;;;;10.53;2.70;;;10.00;99.90;;;;;;4974069;28;20526;-74
2022/01/03 07:52:15;;;;;;;7.57;1.93;;;9.90;99.90;;;;;;4973864;28;20558;-74
2022/01/03 07:54:42;;;;;;;7.63;2.43;;;9.90;99.90;;;;;;4973623;28;20547;-74
2022/01/03 07:57:09;;;;;;;4.70;2.23;;;9.90;99.90;;;;;;4973981;28;20543;-74
2022/01/03 07:59:36;;;;;;;6.00;2.00;;;9.80;99.90;;;;;;4973385;28;20539;-74
2022/01/03 08:02:03;;;;;;;5.57;1.87;;;9.80;99.90;;;;;;4972895;28;20920;-74
2022/01/03 08:04:30;;;;;;;3.93;1.70;;;9.80;99.90;;;;;;4973636;28;20547;-74
2022/01/03 08:06:59;;;;;;;9.07;2.30;;;9.80;99.90;;;;;;4973233;28;20543;-74
2022/01/03 08:09:26;;;;;;;6.40;2.23;;;9.90;99.90;;;;;;4973447;28;20894;-74
2022/01/03 08:11:52;;;;;;;8.17;2.23;;;9.90;99.90;;;;;;4973635;28;20468;-74
2022/01/03 08:14:19;;;;;;;6.10;2.13;;;9.90;99.90;;;;;;4973668;28;20535;-74
2022/01/03 08:16:46;;;;;;;7.57;2.00;;;9.90;99.90;;;;;;4973484;28;20543;-74
2022/01/03 08:19:13;;;;;;;5.27;1.97;;;9.90;99.90;;;;;;4973673;28;20538;-74
2022/01/03 08:21:40;;;;;;;7.87;2.00;;;9.90;99.90;;;;;;4972998;28;20939;-74
2022/01/03 08:24:08;;;;;;;6.93;1.97;;;9.80;99.90;;;;;;4973538;28;20498;-74
2022/01/03 08:26:37;;;;;;;7.13;2.77;;;9.70;99.90;;;;;;4973625;28;20454;-74
2022/01/03 08:29:05;;;;;;;7.80;2.80;;;9.70;99.90;;;;;;4973126;28;20538;-74
2022/01/03 08:31:32;;;;;;;6.30;2.63;;;9.70;99.90;;;;;;4973177;28;20538;-75
2022/01/03 08:33:59;;;;;;;6.50;2.47;;;9.70;99.90;;;;;;4973211;28;21016;-75
2022/01/03 08:36:25;;;;;;;6.03;2.33;;;9.70;99.90;;;;;;4972971;28;20893;-74
2022/01/03 08:38:52;;;;;;;8.20;2.30;;;9.60;99.90;;;;;;4973067;28;20484;-75
2022/01/03 08:41:21;;;;;;;8.03;2.50;;;9.60;99.90;;;;;;4972975;28;20582;-74
2022/01/03 08:43:47;;;;;;;9.70;2.50;;;9.60;99.90;;;;;;4973249;28;20539;-74
2022/01/03 08:46:14;;;;;;;12.87;2.63;;;9.60;99.90;;;;;;4973203;28;20450;-74
2022/01/03 08:48:41;;;;;;;7.83;2.53;;;9.70;99.90;;;;;;4972950;28;20484;-74
2022/01/03 08:51:08;;;;;;;13.97;2.67;;;9.60;99.90;;;;;;4972761;28;20930;-74
2022/01/03 08:53:35;;;;;;;6.53;1.90;;;9.60;99.90;;;;;;4973153;28;20459;-74
2022/01/03 08:56:03;;;;;;;10.27;2.70;;;9.60;99.90;;;;;;4973020;28;20539;-74
2022/01/03 08:58:32;;;;;;;8.20;2.57;;;9.60;99.90;;;;;;4973005;28;20456;-74
2022/01/03 09:00:59;;;;;;;9.10;1.97;;;9.50;99.90;;;;;;4972203;28;20567;-74
2022/01/03 09:03:26;;;;;;;6.73;2.77;;;9.60;99.90;;;;;;4972785;28;20872;-74
2022/01/03 09:05:54;;;;;;;6.77;2.20;;;9.60;99.90;;;;;;4973108;28;20543;-75
2022/01/03 09:08:22;;;;;;;9.77;2.00;;;9.60;99.90;;;;;;4972960;28;20539;-75
2022/01/03 09:10:50;;;;;;;10.30;2.00;;;9.60;99.90;;;;;;4972625;28;20478;-75
2022/01/03 09:13:17;;;;;;;8.30;2.23;;;9.60;99.90;;;;;;4972862;28;20530;-75
2022/01/03 09:15:46;;;;;;;9.83;3.00;;;9.60;99.90;;;;;;4973226;28;20518;-74
2022/01/03 09:18:13;;;;;;;10.00;2.30;;;9.60;99.90;;;;;;4973817;28;20928;-75
2022/01/03 09:20:41;;;;;;;10.27;2.77;;;9.60;99.90;;;;;;4976712;28;20522;-75
2022/01/03 09:23:12;;;;;;;5.63;2.43;;;9.60;99.90;;;;;;4976579;28;20598;-74
2022/01/03 09:31:09;;;;;;;15.30;3.97;;;9.60;99.90;;;;;;4976596;28;20459;-75
2022/01/03 09:33:36;;;;;;;13.50;4.10;;;9.70;99.90;;;;;;4976381;28;20899;-75
2022/01/03 09:36:03;;;;;;;8.40;2.87;;;9.70;99.90;;;;;;4976544;28;20835;-75
2022/01/03 09:38:30;;;;;;;10.07;3.13;;;9.80;99.90;;;;;;4976411;28;20483;-75
2022/01/03 09:41:03;;;;;;;10.93;3.70;;;9.80;99.90;;;;;;4975803;28;20506;-75
2022/01/03 09:43:40;;;;;;;10.93;3.43;;;9.80;99.90;;;;;;4976605;28;20590;-75
2022/01/03 09:46:12;;;;;;;9.93;3.53;;;9.90;99.90;;;;;;4976445;28;20535;-75
2022/01/03 09:48:43;;;;;;;10.97;2.90;;;9.90;99.90;;;;;;4976147;28;20546;-75
2022/01/03 09:51:11;;;;;;;10.90;3.27;;;9.90;99.90;;;;;;4975838;28;20468;-75
2022/01/03 09:53:40;;;;;;;13.10;4.70;;;9.90;99.90;;;;;;4975937;28;20456;-75
2022/01/03 09:56:07;;;;;;;7.20;3.20;;;10.00;99.90;;;;;;4976193;28;20487;-75
2022/01/03 09:58:34;;;;;;;14.47;3.80;;;9.90;99.90;;;;;;4975984;28;20460;-75
2022/01/03 10:01:02;;;;;;;8.40;2.77;;;10.00;99.90;;;;;;4975491;28;20488;-75
2022/01/03 10:03:30;;;;;;;17.20;4.00;;;10.00;99.90;;;;;;4975746;28;20494;-75
2022/01/03 10:05:57;;;;;;;9.80;3.53;;;10.00;99.90;;;;;;4975598;28;20542;-75
2022/01/03 10:08:24;;;;;;;11.33;3.40;;;9.90;99.90;;;;;;4975740;28;20455;-75
2022/01/03 10:10:52;;;;;;;10.47;3.07;;;9.90;99.90;;;;;;4975417;28;20554;-75
2022/01/03 10:13:19;;;;;;;9.50;2.97;;;10.00;99.90;;;;;;4976056;28;20479;-76
2022/01/03 10:15:47;;;;;;;9.20;3.77;;;10.00;99.90;;;;;;4975764;28;20540;-75
2022/01/03 10:18:18;;;;;;;11.00;3.00;;;10.00;99.90;;;;;;4975679;28;20535;-76
2022/01/03 10:20:47;;;;;;;5.37;2.93;;;10.00;99.90;;;;;;4975644;28;20468;-75
2022/01/03 10:23:17;;;;;;;4.90;3.10;;;10.00;99.90;;;;;;4975756;28;20582;-75
2022/01/03 10:25:46;;;;;;;5.30;2.93;;;10.00;99.90;;;;;;4975521;28;20530;-75
2022/01/03 10:28:22;;;;;;;6.33;2.77;;;10.00;99.90;;;;;;4975587;28;20462;-75
2022/01/03 10:30:49;;;;;;;14.07;3.60;;;10.10;99.90;;;;;;4974135;28;20930;-75
2022/01/03 10:33:18;;;;;;;9.10;3.23;;;10.10;99.90;;;;;;4975566;28;20463;-75
2022/01/03 10:35:48;;;;;;;19.20;3.57;;;10.20;99.90;;;;;;4975532;28;20536;-75
2022/01/03 10:38:32;;;;;;;8.73;3.43;;;10.20;99.90;;;;;;4975369;28;20539;-76
2022/01/03 10:41:14;;;;;;;9.13;3.10;;;10.20;99.90;;;;;;4975121;28;20554;-75
2022/01/03 10:43:41;;;;;;;10.83;3.17;;;10.20;99.90;;;;;;4975090;28;20554;-75
2022/01/03 10:46:18;;;;;;;14.87;3.60;;;10.20;99.90;;;;;;4975343;28;20456;-75
2022/01/03 10:48:45;;;;;;;13.77;3.80;;;10.30;99.90;;;;;;4975102;28;20448;-75
2022/01/03 10:51:22;;;;;;;11.90;3.10;;;10.30;99.90;;;;;;4974913;28;20558;-75
2022/01/03 10:53:51;;;;;;;8.93;3.40;;;10.30;99.90;;;;;;4974842;28;20452;-75
2022/01/03 10:56:33;;;;;;;7.00;2.67;;;10.30;99.90;;;;;;4975154;28;20543;-75
2022/01/03 10:59:02;;;;;;;8.73;3.47;;;10.40;99.90;;;;;;4974933;28;20463;-75
2022/01/03 11:01:31;;;;;;;10.23;3.73;;;10.40;99.90;;;;;;4974607;28;20518;-74
2022/01/03 11:04:01;;;;;;;7.70;4.20;;;10.40;99.90;;;;;;4974873;28;20456;-74
2022/01/03 11:06:50;;;;;;;8.47;3.40;;;10.40;99.90;;;;;;4974569;28;20452;-74
2022/01/03 11:12:19;;;;;;;10.30;3.70;;;10.40;99.90;;;;;;4974760;28;20487;-75
2022/01/03 11:17:24;;;;;;;16.43;4.97;;;10.50;99.90;;;;;;5014533;23;20499;-74
2022/01/03 11:19:51;;;;;;;12.90;3.47;;;10.50;99.90;;;;;;4994107;28;20537;-74
2022/01/03 11:22:38;;;;;;;12.77;3.27;;;10.50;99.90;;;;;;4993803;28;20573;-74
2022/01/03 11:25:06;;;;;;;14.87;3.10;;;10.50;99.90;;;;;;4993591;28;20542;-74
2022/01/03 11:27:34;;;;;;;9.67;2.73;;;10.50;99.90;;;;;;4993774;28;20467;-74
2022/01/03 11:30:01;;;;;;;11.77;2.80;;;10.50;99.90;;;;;;4993782;28;20463;-74
2022/01/03 11:32:29;;;;;;;6.10;3.03;;;10.50;99.90;;;;;;4993795;28;20538;-74
2022/01/03 11:34:57;;;;;;;11.43;3.40;;;10.50;99.90;;;;;;4993625;28;20558;-74
2022/01/03 11:37:25;;;;;;;10.03;3.70;;;10.50;99.90;;;;;;4993545;28;20893;-74
2022/01/03 11:39:55;;;;;;;8.53;4.23;;;10.50;99.90;;;;;;4993326;28;20530;-74
2022/01/03 11:42:22;;;;;;;6.30;3.80;;;10.60;99.90;;;;;;4993504;28;20577;-74
2022/01/03 11:44:50;;;;;;;9.60;3.33;;;10.60;99.90;;;;;;4993518;28;20538;-74
2022/01/03 11:47:18;;;;;;;5.90;3.20;;;10.70;99.90;;;;;;4993617;28;20537;-74
2022/01/03 11:49:45;;;;;;;11.53;3.30;;;10.70;99.90;;;;;;4993340;28;20451;-74
2022/01/03 11:52:15;;;;;;;10.83;3.60;;;10.70;99.90;;;;;;4993214;28;20534;-74
2022/01/03 11:54:43;;;;;;;9.83;3.67;;;10.70;99.90;;;;;;4993685;28;20501;-74
2022/01/03 11:57:20;;;;;;;11.53;3.77;;;10.70;99.90;;;;;;4993102;28;21058;-74
2022/01/03 12:05:46;;;;;;;6.37;3.30;;;10.80;99.90;;;;;;4993223;28;20455;-75
2022/01/03 12:08:21;;;;;;;6.57;2.90;;;10.80;99.90;;;;;;4993058;28;20541;-75
2022/01/03 12:10:49;;;;;;;8.33;3.33;;;10.80;99.90;;;;;;4992775;28;20938;-75
2022/01/03 12:13:19;;;;;;;13.00;3.50;;;10.80;99.90;;;;;;4993090;28;20490;-75
2022/01/03 12:15:46;;;;;;;6.37;2.90;;;10.80;99.90;;;;;;4993053;28;20515;-75
2022/01/03 12:18:29;;;;;;;7.40;3.57;;;10.80;99.90;;;;;;4993101;28;20486;-74
2022/01/03 12:20:56;;;;;;;8.40;3.20;;;10.80;99.90;;;;;;4992773;28;20451;-74
2022/01/03 12:23:40;;;;;;;8.43;2.93;;;10.90;99.90;;;;;;4992626;28;20586;-74
2022/01/03 12:26:09;;;;;;;8.37;3.30;;;10.90;99.90;;;;;;4992899;28;20554;-74
2022/01/03 12:29:14;;;;;;;7.17;2.30;;;10.90;99.90;;;;;;4992611;28;20481;-74
2022/01/03 12:32:14;;;;;;;6.50;2.73;;;10.90;99.90;;;;;;4982080;28;20557;-74
2022/01/03 12:34:41;;;;;;;9.77;3.30;;;10.90;99.90;;;;;;4992749;28;20541;-74
2022/01/03 12:37:19;;;;;;;9.07;2.70;;;10.90;99.90;;;;;;4992630;28;20471;-74
2022/01/03 12:40:11;;;;;;;8.20;3.30;;;10.90;99.90;;;;;;4992296;28;20482;-74
2022/01/03 12:43:05;;;;;;;5.60;2.83;;;11.00;99.90;;;;;;4992464;28;20945;-74
2022/01/03 12:45:55;;;;;;;7.67;2.90;;;11.00;99.90;;;;;;4983105;28;20585;-74
2022/01/03 12:48:24;;;;;;;8.53;2.90;;;11.00;99.90;;;;;;4992216;28;20542;-74
2022/01/03 12:51:14;;;;;;;7.33;2.57;;;11.00;99.90;;;;;;4992367;28;20486;-74
2022/01/03 12:53:49;;;;;;;12.00;3.30;;;11.00;99.90;;;;;;4994225;28;20829;-74
2022/01/03 12:56:19;;;;;;;7.00;2.73;;;11.00;99.90;;;;;;4992267;28;20986;-74
2022/01/03 12:58:48;;;;;;;6.77;2.63;;;11.10;99.90;;;;;;4992545;28;20455;-74
2022/01/03 13:01:30;;;;;;;9.87;2.50;;;11.10;99.90;;;;;;4992285;28;20487;-74
2022/01/03 13:04:01;;;;;;;8.40;2.97;;;11.10;99.90;;;;;;4992456;28;20920;-74
2022/01/03 13:06:30;;;;;;;4.93;2.00;;;11.10;99.90;;;;;;4992355;28;20543;-74
2022/01/03 13:09:11;;;;;;;8.30;2.27;;;11.20;99.90;;;;;;4992026;28;20881;-74
2022/01/03 13:11:40;;;;;;;5.60;2.00;;;11.20;99.90;;;;;;4992365;28;20860;-74
2022/01/03 13:14:09;;;;;;;6.00;2.17;;;11.30;99.90;;;;;;4992554;28;20534;-74
2022/01/03 13:16:38;;;;;;;8.33;1.70;;;11.30;99.90;;;;;;4992184;28;20573;-74
2022/01/03 13:19:08;;;;;;;5.07;2.00;;;11.40;99.90;;;;;;4992128;28;20447;-74
2022/01/03 13:21:37;;;;;;;4.63;1.77;;;11.40;99.90;;;;;;4992256;28;20529;-74
2022/01/03 13:24:08;;;;;;;3.70;1.70;;;11.40;99.90;;;;;;4992028;28;20889;-74
2022/01/03 13:26:51;;;;;;;5.80;1.77;;;11.50;99.90;;;;;;4992165;28;20489;-75
2022/01/03 13:29:18;;;;;;;6.93;1.80;;;11.40;99.90;;;;;;4991969;28;20489;-75
2022/01/03 13:31:45;;;;;;;5.37;2.33;;;11.50;99.90;;;;;;4992137;28;20530;-75
2022/01/03 13:34:14;;;;;;;5.13;1.80;;;11.50;99.90;;;;;;4992342;28;20971;-75
2022/01/03 13:36:43;;;;;;;4.17;1.50;;;11.50;99.90;;;;;;4991991;28;20911;-75
2022/01/03 13:39:12;;;;;;;2.90;1.53;;;11.50;99.90;;;;;;4991838;28;20455;-75
2022/01/03 13:41:41;;;;;;;3.57;1.43;;;11.50;99.90;;;;;;4992142;28;20455;-75
2022/01/03 13:44:11;;;;;;;3.47;1.40;;;11.50;99.90;;;;;;4991960;28;20577;-75
2022/01/03 13:49:31;;;;;;;6.97;1.70;;;11.50;99.90;;;;;;4991747;28;20430;-75
2022/01/03 13:51:59;;;;;;;6.70;1.67;;;11.50;99.90;;;;;;4992116;28;20454;-74
2022/01/03 13:54:27;;;;;;;3.70;1.40;;;11.50;99.90;;;;;;4991885;28;20546;-74
2022/01/03 13:56:56;;;;;;;7.70;1.73;;;11.50;99.90;;;;;;4991848;28;20551;-74
2022/01/03 13:59:25;;;;;;;5.73;1.80;;;11.50;99.90;;;;;;4991450;28;20465;-74
2022/01/03 14:01:53;;;;;;;3.37;1.80;;;11.50;99.90;;;;;;4991626;28;20505;-74
2022/01/03 14:04:20;;;;;;;3.20;2.10;;;11.50;99.90;;;;;;4991722;28;21086;-74
2022/01/03 14:07:04;;;;;;;11.10;2.03;;;11.50;99.90;;;;;;4994804;28;20524;-74
2022/01/03 14:09:40;;;;;;;3.47;1.60;;;11.60;99.90;;;;;;4995394;28;20542;-74
2022/01/03 14:12:12;;;;;;;5.27;1.73;;;11.60;99.90;;;;;;4995329;28;20435;-74
2022/01/03 14:14:40;;;;;;;5.23;1.37;;;11.60;99.90;;;;;;4995322;28;20451;-74
2022/01/03 14:17:08;;;;;;;3.13;1.60;;;11.60;99.90;;;;;;4995117;28;20566;-74
2022/01/03 14:19:37;;;;;;;3.10;1.70;;;11.60;99.90;;;;;;4994860;28;20542;-74
2022/01/03 14:22:16;;;;;;;8.77;1.93;;;11.60;99.90;;;;;;4994855;28;20486;-74
2022/01/03 14:24:56;;;;;;;4.73;1.37;;;11.60;99.90;;;;;;4995121;28;20927;-74
2022/01/03 14:27:23;;;;;;;10.13;3.00;;;11.60;99.90;;;;;;4995014;28;20482;-74
2022/01/03 14:29:50;;;;;;;6.37;2.00;;;11.60;99.90;;;;;;4995109;28;20459;-74
2022/01/03 14:32:17;;;;;;;6.03;2.10;;;11.60;99.90;;;;;;4994790;28;20493;-74
2022/01/03 14:34:51;;;;;;;5.50;2.10;;;11.60;99.90;;;;;;4994586;28;20510;-74
2022/01/03 14:37:27;;;;;;;9.63;2.37;;;11.60;99.90;;;;;;4994923;28;20451;-74
2022/01/03 14:39:57;;;;;;;3.73;2.47;;;11.70;99.90;;;;;;4994462;28;20458;-74
2022/01/03 14:42:27;;;;;;;7.43;2.90;;;11.60;99.90;;;;;;4994681;28;20459;-74
2022/01/03 14:44:54;;;;;;;8.13;2.20;;;11.60;99.90;;;;;;4994546;28;20503;-74
2022/01/03 14:47:25;;;;;;;6.73;2.00;;;11.70;99.90;;;;;;4994444;28;20487;-74
2022/01/03 14:49:57;;;;;;;8.00;3.20;;;11.60;99.90;;;;;;4994684;28;20459;-74
2022/01/03 14:52:33;;;;;;;5.17;2.27;;;11.70;99.90;;;;;;4994480;28;20582;-74
2022/01/03 14:55:01;;;;;;;4.17;1.77;;;11.60;99.90;;;;;;4994560;28;20537;-74
2022/01/03 14:57:29;;;;;;;9.10;2.27;;;11.60;99.90;;;;;;4994132;28;20538;-74
2022/01/03 14:59:58;;;;;;;5.63;2.23;;;11.70;99.90;;;;;;4994300;28;20455;-74
2022/01/03 15:02:25;;;;;;;7.20;2.13;;;11.60;99.90;;;;;;4994090;28;20462;-74
2022/01/03 15:04:53;;;;;;;5.27;2.03;;;11.60;99.90;;;;;;4994092;28;21109;-74
2022/01/03 15:07:22;;;;;;;5.73;2.30;;;11.50;99.90;;;;;;4994654;28;20452;-74
2022/01/03 15:09:52;;;;;;;5.20;2.03;;;11.50;99.90;;;;;;4994036;28;20548;-74
2022/01/03 15:12:19;;;;;;;4.30;2.33;;;11.50;99.90;;;;;;4994710;28;20459;-74
2022/01/03 15:14:46;;;;;;;3.83;2.20;;;11.50;99.90;;;;;;4994324;28;20642;-75
2022/01/03 15:17:13;;;;;;;4.20;2.40;;;11.50;99.90;;;;;;4993355;28;20570;-75
2022/01/03 15:19:40;;;;;;;5.57;2.53;;;11.50;99.90;;;;;;4993726;28;21030;-75
2022/01/03 15:22:07;;;;;;;4.23;2.13;;;11.50;99.90;;;;;;4993946;28;20471;-75
2022/01/03 15:24:34;;;;;;;3.63;1.80;;;11.50;99.90;;;;;;4993525;28;20529;-75
2022/01/03 15:27:03;;;;;;;6.00;1.90;;;11.50;99.90;;;;;;4994059;28;20513;-75
2022/01/03 15:29:30;;;;;;;3.07;1.80;;;11.50;99.90;;;;;;4993508;28;20545;-75
2022/01/03 15:31:57;;;;;;;7.87;2.10;;;11.50;99.90;;;;;;4993683;28;20993;-75
2022/01/03 15:34:23;;;;;;;3.27;2.20;;;11.50;99.90;;;;;;4993725;28;20451;-75
2022/01/03 15:36:50;;;;;;;5.03;1.80;;;11.40;99.90;;;;;;4993429;28;21041;-75
2022/01/03 15:39:17;;;;;;;3.57;1.77;;;11.40;99.90;;;;;;4993232;28;20534;-75
2022/01/03 15:41:44;;;;;;;6.67;1.80;;;11.40;99.90;;;;;;4993647;28;20932;-74
2022/01/03 15:44:12;;;;;;;8.10;2.10;;;11.30;99.90;;;;;;4993602;28;20583;-74
2022/01/03 15:46:40;;;;;;;6.60;2.23;;;11.40;99.90;;;;;;4993556;28;20471;-74
2022/01/03 15:49:08;;;;;;;5.50;1.83;;;11.40;99.90;;;;;;4993216;28;20459;-74
2022/01/03 15:51:34;;;;;;;3.13;1.33;;;11.40;99.90;;;;;;4993203;28;20545;-75
2022/01/03 15:54:03;;;;;;;5.60;2.00;;;11.30;99.90;;;;;;4993516;28;20481;-74
2022/01/03 15:56:30;;;;;;;2.23;1.67;;;11.40;99.90;;;;;;4993436;28;20487;-74
2022/01/03 15:58:57;;;;;;;5.07;1.83;;;11.40;99.90;;;;;;4993046;28;20534;-74
2022/01/03 16:01:25;;;;;;;3.53;1.53;;;11.40;99.90;;;;;;4992828;28;20542;-74
2022/01/03 16:03:52;;;;;;;5.17;1.83;;;11.30;99.90;;;;;;4993092;28;20534;-74
2022/01/03 16:06:19;;;;;;;3.20;1.60;;;11.40;99.90;;;;;;4992750;28;20915;-74
2022/01/03 16:08:46;;;;;;;3.07;1.87;;;11.30;99.90;;;;;;4993094;28;20506;-74
2022/01/03 16:11:13;;;;;;;3.47;1.50;;;11.30;99.90;;;;;;4992841;28;20550;-74
2022/01/03 16:13:39;;;;;;;6.27;1.90;;;11.30;99.90;;;;;;4993277;28;20482;-76
2022/01/03 16:16:06;;;;;;;3.47;1.90;;;11.30;99.90;;;;;;4992958;28;20482;-75
2022/01/03 16:18:35;;;;;;;4.50;1.90;;;11.30;99.90;;;;;;4992891;28;20542;-75
2022/01/03 16:21:03;;;;;;;4.37;1.87;;;11.30;99.90;;;;;;4992504;28;20467;-75
2022/01/03 16:23:30;;;;;;;6.83;2.10;;;11.20;99.90;;;;;;4992989;28;20457;-75
2022/01/03 16:25:57;;;;;;;4.03;1.93;;;11.20;99.90;;;;;;4992849;28;20554;-76
2022/01/03 16:28:24;;;;;;;5.70;1.90;;;11.20;99.90;;;;;;4992058;28;20530;-75
2022/01/03 16:30:51;;;;;;;2.27;1.70;;;11.20;99.90;;;;;;4992447;28;20543;-75
2022/01/03 16:33:18;;;;;;;3.93;2.03;;;11.20;99.90;;;;;;4992662;28;20486;-75
2022/01/03 16:35:47;;;;;;;6.00;1.80;;;11.20;99.90;;;;;;4992527;28;21034;-75
2022/01/03 16:38:14;;;;;;;5.20;2.83;;;11.20;99.90;;;;;;4992877;28;20886;-75
2022/01/03 16:40:41;;;;;;;6.70;2.57;;;11.20;99.90;;;;;;4992532;28;20513;-75
2022/01/03 16:43:08;;;;;;;3.50;1.50;;;11.20;99.90;;;;;;4992765;28;20538;-75
2022/01/03 16:45:35;;;;;;;6.50;1.57;;;11.20;99.90;;;;;;4992619;28;20582;-75
2022/01/03 16:48:02;;;;;;;5.37;1.47;;;11.10;99.90;;;;;;4992320;28;20882;-75
2022/01/03 16:50:30;;;;;;;6.63;1.93;;;11.10;99.90;;;;;;4992541;28;20454;-75
2022/01/03 16:52:59;;;;;;;4.87;1.90;;;11.10;99.90;;;;;;4992620;28;20815;-75
2022/01/03 16:55:26;;;;;;;3.50;1.77;;;11.20;99.90;;;;;;4995770;28;20558;-75
2022/01/03 16:57:53;;;;;;;7.97;1.73;;;11.10;99.90;;;;;;4994003;28;20479;-75
2022/01/03 17:00:20;;;;;;;5.53;2.07;;;11.10;99.90;;;;;;4992916;28;20497;-75
2022/01/03 17:02:47;;;;;;;6.70;1.97;;;11.10;99.90;;;;;;4992098;28;20447;-75
2022/01/03 17:05:14;;;;;;;4.40;1.80;;;11.10;99.90;;;;;;4992279;28;20585;-75
2022/01/03 17:07:41;;;;;;;2.07;1.50;;;11.10;99.90;;;;;;4992649;28;20534;-75
2022/01/03 17:10:10;;;;;;;4.40;1.97;;;11.00;99.90;;;;;;4992543;28;20639;-75
2022/01/03 17:12:38;;;;;;;4.60;1.90;;;11.00;99.90;;;;;;4992449;28;20467;-75
2022/01/03 17:15:06;;;;;;;5.43;2.30;;;11.00;99.90;;;;;;4992425;28;20472;-75
2022/01/03 17:17:33;;;;;;;2.20;1.80;;;11.00;99.90;;;;;;4998820;23;20921;-77
2022/01/03 17:20:00;;;;;;;6.33;1.97;;;10.90;99.90;;;;;;4972301;28;20540;-77
2022/01/03 17:22:27;;;;;;;6.67;2.13;;;10.90;99.90;;;;;;4972950;28;20911;-77
2022/01/03 17:24:54;;;;;;;4.70;1.90;;;10.90;99.90;;;;;;4972853;28;20574;-77
2022/01/03 17:27:22;;;;;;;7.23;1.90;;;10.90;99.90;;;;;;4972558;28;20559;-76
2022/01/03 17:29:49;;;;;;;5.57;1.93;;;10.90;99.90;;;;;;4972044;28;20542;-77
2022/01/03 17:32:16;;;;;;;3.87;2.13;;;10.90;99.90;;;;;;4972801;28;20448;-77
2022/01/03 17:34:43;;;;;;;2.90;1.80;;;10.90;99.90;;;;;;4972720;28;21007;-77
2022/01/03 17:37:10;;;;;;;6.47;2.40;;;10.90;99.90;;;;;;4972750;28;20467;-77
2022/01/03 17:39:37;;;;;;;5.87;2.67;;;10.90;99.90;;;;;;4974067;28;20527;-76
2022/01/03 17:42:05;;;;;;;2.63;2.20;;;10.90;99.90;;;;;;4976256;28;20539;-77
2022/01/03 17:44:33;;;;;;;4.30;2.03;;;10.90;99.90;;;;;;4975901;28;20583;-77
2022/01/03 17:47:00;;;;;;;6.90;2.50;;;10.90;99.90;;;;;;4976258;28;20647;-77
2022/01/03 17:49:27;;;;;;;3.67;2.07;;;10.80;99.90;;;;;;4975967;28;20456;-76
2022/01/03 17:51:54;;;;;;;3.27;1.93;;;10.90;99.90;;;;;;4976127;28;21015;-77
2022/01/03 17:54:21;;;;;;;4.40;2.00;;;10.90;99.90;;;;;;4976111;28;20505;-77
2022/01/03 17:56:48;;;;;;;4.60;1.93;;;10.90;99.90;;;;;;4975748;28;20893;-77
2022/01/03 17:59:15;;;;;;;4.67;2.10;;;10.90;99.90;;;;;;4975944;28;20539;-77
2022/01/03 18:01:43;;;;;;;5.47;2.40;;;10.80;99.90;;;;;;4975596;28;21019;-77
2022/01/03 18:04:11;;;;;;;4.30;2.40;;;10.80;99.90;;;;;;4975982;28;20495;-76
2022/01/03 18:06:38;;;;;;;5.30;2.23;;;10.80;99.90;;;;;;4975892;28;20503;-77
2022/01/03 18:09:05;;;;;;;7.03;2.90;;;10.70;99.90;;;;;;4975477;28;20531;-77
2022/01/03 18:11:32;;;;;;;8.73;2.53;;;10.80;99.90;;;;;;4975767;28;20570;-77
2022/01/03 18:13:59;;;;;;;6.80;2.43;;;10.80;99.90;;;;;;4975944;28;20535;-77
2022/01/03 18:16:27;;;;;;;5.83;2.50;;;10.70;99.90;;;;;;4975647;28;20483;-77
2022/01/03 18:18:55;;;;;;;2.73;2.00;;;10.70;99.90;;;;;;4975406;28;20455;-77
2022/01/03 18:21:22;;;;;;;5.47;2.43;;;10.70;99.90;;;;;;4975815;28;20547;-77
2022/01/03 18:23:48;;;;;;;5.20;1.90;;;10.70;99.90;;;;;;4975295;28;20538;-77